Time;durP1;ratioP1;P1;durP2;ratioP2;P2;SDS_P1;SDS_P2;PMS_P1;PMS_P2;Temp;Humidity;BMP_temperature;BMP_pressure;BME280_temperature;BME280_humidity;BME280_pressure;Samples;Min_cycle;Max_cycle;Signal;HPM_P1;HPM_P2
2023/01/25 00:00:28;;;;;;;41.55;34.30;;;1.90;99.90;;;;;;5042441;28;20045;-74
2023/01/25 00:02:54;;;;;;;40.28;33.60;;;1.90;99.90;;;;;;5039951;28;20045;-74
2023/01/25 00:05:20;;;;;;;41.28;33.80;;;1.90;99.90;;;;;;5049290;28;20055;-74
2023/01/25 00:07:45;;;;;;;42.78;35.50;;;1.90;99.90;;;;;;5047752;28;20037;-74
2023/01/25 00:10:11;;;;;;;41.47;34.80;;;1.90;99.90;;;;;;5046238;28;20030;-74
2023/01/25 00:12:37;;;;;;;41.65;33.30;;;1.80;99.90;;;;;;5045168;28;20499;-74
2023/01/25 00:15:02;;;;;;;40.75;33.40;;;1.90;99.90;;;;;;5042870;28;20046;-73
2023/01/25 00:17:28;;;;;;;42.22;34.72;;;1.90;99.90;;;;;;5049823;28;20057;-74
2023/01/25 00:19:54;;;;;;;40.33;34.03;;;1.90;99.90;;;;;;5048650;28;20477;-73
2023/01/25 00:22:19;;;;;;;41.13;34.33;;;1.90;99.90;;;;;;5047880;28;20043;-74
2023/01/25 00:24:45;;;;;;;42.95;35.22;;;1.90;99.90;;;;;;5041409;28;20155;-73
2023/01/25 00:27:10;;;;;;;42.95;35.28;;;1.90;99.90;;;;;;5040745;28;20106;-74
2023/01/25 00:29:36;;;;;;;39.85;33.42;;;1.90;99.90;;;;;;5049419;28;20060;-74
2023/01/25 00:32:20;;;;;;;43.00;35.10;;;1.90;99.90;;;;;;5044790;28;20179;-73
2023/01/25 00:34:48;;;;;;;40.35;33.15;;;1.90;99.90;;;;;;5039743;28;20505;-74
2023/01/25 00:37:22;;;;;;;41.45;35.55;;;1.90;99.90;;;;;;5036167;28;20049;-73
2023/01/25 00:39:47;;;;;;;44.65;35.97;;;1.90;99.90;;;;;;5042916;28;20512;-74
2023/01/25 00:42:15;;;;;;;42.67;34.35;;;1.90;99.90;;;;;;5046242;28;20044;-74
2023/01/25 00:44:41;;;;;;;;;;;1.90;99.90;;;;;;5046193;28;20067;-74
2023/01/25 00:47:08;;;;;;;42.30;33.60;;;1.90;99.90;;;;;;5064231;28;19971;-74
2023/01/25 00:49:33;;;;;;;43.57;34.63;;;1.90;99.90;;;;;;5036384;28;20534;-73
2023/01/25 00:51:59;;;;;;;42.10;34.92;;;1.90;99.90;;;;;;5037250;28;20308;-73
2023/01/25 00:54:25;;;;;;;45.83;37.47;;;1.80;99.90;;;;;;5030750;28;20374;-74
2023/01/25 00:56:52;;;;;;;45.15;37.67;;;1.90;99.90;;;;;;5033854;28;20064;-74
2023/01/25 00:59:19;;;;;;;42.58;34.85;;;1.90;99.90;;;;;;5049829;28;20060;-73
2023/01/25 01:01:45;;;;;;;44.75;37.10;;;1.90;99.90;;;;;;5049317;28;20392;-73
2023/01/25 01:04:10;;;;;;;45.88;36.90;;;1.90;99.90;;;;;;5046836;28;20041;-73
2023/01/25 01:06:37;;;;;;;45.92;37.13;;;1.80;99.90;;;;;;5043660;28;20084;-73
2023/01/25 01:09:05;;;;;;;44.00;37.13;;;1.80;99.90;;;;;;5043479;28;20563;-73
2023/01/25 01:11:31;;;;;;;;;;;1.80;99.90;;;;;;5048080;28;20184;-74
2023/01/25 01:13:57;;;;;;;46.55;37.08;;;1.80;99.90;;;;;;5045150;28;20023;-74
2023/01/25 01:16:23;;;;;;;46.30;38.07;;;1.90;99.90;;;;;;5042065;28;20040;-74
2023/01/25 01:18:49;;;;;;;47.83;38.10;;;1.80;99.90;;;;;;5043129;28;20179;-73
2023/01/25 01:21:15;;;;;;;46.30;36.63;;;1.80;99.90;;;;;;5029193;28;20040;-74
2023/01/25 01:23:41;;;;;;;48.25;38.58;;;1.80;99.90;;;;;;5046272;28;20044;-74
2023/01/25 01:26:10;;;;;;;47.30;39.10;;;1.80;99.90;;;;;;5050542;28;20034;-74
2023/01/25 01:28:38;;;;;;;49.53;39.20;;;1.80;99.90;;;;;;5038453;28;20045;-73
2023/01/25 01:31:14;;;;;;;46.58;36.85;;;1.80;99.90;;;;;;5041497;28;20041;-73
2023/01/25 01:33:40;;;;;;;47.85;37.47;;;1.80;99.90;;;;;;5037804;28;20187;-73
2023/01/25 01:36:10;;;;;;;49.05;39.38;;;1.70;99.90;;;;;;5032247;28;20132;-73
2023/01/25 01:38:36;;;;;;;47.20;38.28;;;1.80;99.90;;;;;;5048291;28;20463;-73
2023/01/25 01:41:01;;;;;;;48.45;39.22;;;1.80;99.90;;;;;;5037013;28;20053;-74
2023/01/25 01:43:29;;;;;;;50.28;40.08;;;1.80;99.90;;;;;;5048247;28;20041;-74
2023/01/25 01:45:58;;;;;;;50.47;40.55;;;1.80;99.90;;;;;;5042711;28;20076;-73
2023/01/25 01:48:32;;;;;;;49.55;40.20;;;1.80;99.90;;;;;;5035664;28;20107;-73
2023/01/25 01:51:04;;;;;;;49.35;40.10;;;1.80;99.90;;;;;;5050390;28;20045;-73
2023/01/25 01:53:32;;;;;;;51.55;40.83;;;1.80;99.90;;;;;;5052675;28;20587;-74
2023/01/25 01:56:01;;;;;;;51.60;40.97;;;1.70;99.90;;;;;;5048632;28;20045;-73
2023/01/25 01:58:28;;;;;;;49.70;39.90;;;1.70;99.90;;;;;;5052237;28;20056;-73
2023/01/25 02:00:54;;;;;;;;;;;1.70;99.90;;;;;;5044181;28;20040;-73
2023/01/25 02:03:20;;;;;;;51.20;40.22;;;1.70;99.90;;;;;;5050588;28;19921;-73
2023/01/25 02:05:53;;;;;;;50.28;39.92;;;1.70;99.90;;;;;;5051444;28;20049;-73
2023/01/25 02:08:19;;;;;;;49.15;39.35;;;1.80;99.90;;;;;;5043857;28;20498;-74
2023/01/25 02:10:46;;;;;;;52.20;41.15;;;1.80;99.90;;;;;;5039237;28;20045;-74
2023/01/25 02:13:12;;;;;;;51.35;40.13;;;1.80;99.90;;;;;;5050425;28;20128;-73
2023/01/25 02:15:43;;;;;;;51.92;42.25;;;1.80;99.90;;;;;;5038029;28;20128;-73
2023/01/25 02:18:10;;;;;;;51.13;40.25;;;1.80;99.90;;;;;;5039369;28;20056;-74
2023/01/25 02:20:39;;;;;;;49.97;40.40;;;1.80;99.90;;;;;;5051739;28;20045;-73
2023/01/25 02:23:07;;;;;;;53.30;41.20;;;1.80;99.90;;;;;;5052209;28;20041;-73
2023/01/25 02:25:33;;;;;;;51.05;40.67;;;1.80;99.90;;;;;;5050425;28;20052;-74
2023/01/25 02:28:05;;;;;;;51.55;40.85;;;1.80;99.90;;;;;;5050993;28;20055;-74
2023/01/25 02:30:32;;;;;;;51.90;40.67;;;1.80;99.90;;;;;;5051660;28;20049;-73
2023/01/25 02:32:58;;;;;;;52.97;40.97;;;1.80;99.90;;;;;;5052942;28;20091;-73
2023/01/25 02:35:58;;;;;;;51.42;40.22;;;1.80;99.90;;;;;;5031378;28;20049;-73
2023/01/25 02:38:24;;;;;;;50.28;39.40;;;1.80;99.90;;;;;;5048830;28;20516;-73
2023/01/25 02:40:59;;;;;;;51.35;39.03;;;1.80;99.90;;;;;;5051755;28;20052;-73
2023/01/25 02:43:29;;;;;;;47.53;37.78;;;1.80;99.90;;;;;;5038862;28;20052;-74
2023/01/25 02:46:13;;;;;;;50.17;38.80;;;1.80;99.90;;;;;;5048036;28;20040;-73
2023/01/25 02:48:38;;;;;;;48.30;38.45;;;1.80;99.90;;;;;;5046099;28;20103;-73
2023/01/25 02:51:08;;;;;;;46.50;38.60;;;1.80;99.90;;;;;;5047516;28;20053;-73
2023/01/25 02:53:35;;;;;;;47.65;38.08;;;1.70;99.90;;;;;;5052447;28;20128;-73
2023/01/25 02:56:00;;;;;;;45.72;37.13;;;1.70;99.90;;;;;;5048502;28;20053;-73
2023/01/25 02:58:26;;;;;;;47.38;38.80;;;1.70;99.90;;;;;;5048727;28;20092;-74
2023/01/25 03:00:52;;;;;;;47.67;37.95;;;1.60;99.90;;;;;;5049429;28;20465;-73
2023/01/25 03:03:18;;;;;;;47.08;37.38;;;1.60;99.90;;;;;;5048746;28;20056;-73
2023/01/25 03:05:43;;;;;;;47.08;37.50;;;1.60;99.90;;;;;;5051503;28;20128;-73
2023/01/25 03:08:09;;;;;;;51.78;38.90;;;1.50;99.90;;;;;;5051189;28;20135;-73
2023/01/25 03:10:35;;;;;;;51.47;42.35;;;1.60;99.90;;;;;;5051045;28;20050;-74
2023/01/25 03:13:00;;;;;;;49.50;39.40;;;1.60;99.90;;;;;;5050261;28;20146;-73
2023/01/25 03:15:26;;;;;;;49.35;38.47;;;1.60;99.90;;;;;;5041143;28;20053;-73
2023/01/25 03:17:52;;;;;;;44.95;36.20;;;1.60;99.90;;;;;;5032120;28;20037;-73
2023/01/25 03:20:18;;;;;;;46.78;36.63;;;1.50;99.90;;;;;;5047115;28;20128;-73
2023/01/25 03:22:43;;;;;;;45.67;35.88;;;1.50;99.90;;;;;;5042442;28;20045;-73
2023/01/25 03:25:09;;;;;;;49.00;37.85;;;1.50;99.90;;;;;;5047515;28;20068;-73
2023/01/25 03:27:34;;;;;;;46.67;37.63;;;1.50;99.90;;;;;;5047984;28;20076;-73
2023/01/25 03:30:00;;;;;;;49.15;38.70;;;1.50;99.90;;;;;;5042936;28;20503;-73
2023/01/25 03:32:26;;;;;;;50.88;38.45;;;1.50;99.90;;;;;;5033586;28;20041;-73
2023/01/25 03:34:51;;;;;;;49.80;37.42;;;1.50;99.90;;;;;;5051592;28;20072;-73
2023/01/25 03:37:17;;;;;;;51.47;39.10;;;1.50;99.90;;;;;;5034403;28;20148;-73
2023/01/25 03:39:43;;;;;;;46.80;36.63;;;1.50;99.90;;;;;;5047979;28;20048;-74
2023/01/25 03:42:08;;;;;;;48.90;37.67;;;1.50;99.90;;;;;;5043783;28;20542;-74
2023/01/25 03:44:34;;;;;;;48.85;38.47;;;1.50;99.90;;;;;;5047330;28;20048;-73
2023/01/25 03:47:00;;;;;;;47.92;36.83;;;1.50;99.90;;;;;;5046192;28;20045;-74
2023/01/25 03:49:26;;;;;;;46.85;37.70;;;1.50;99.90;;;;;;5049866;28;20049;-73
2023/01/25 03:51:52;;;;;;;50.83;37.58;;;1.50;99.90;;;;;;5049050;28;20098;-73
2023/01/25 03:54:18;;;;;;;47.67;36.63;;;1.40;99.90;;;;;;5043620;28;20500;-73
2023/01/25 03:56:44;;;;;;;46.67;36.20;;;1.40;99.90;;;;;;5038179;28;20033;-73
2023/01/25 03:59:11;;;;;;;48.85;37.38;;;1.40;99.90;;;;;;5048623;28;20068;-73
2023/01/25 04:01:37;;;;;;;48.60;38.00;;;1.40;99.90;;;;;;5040413;28;20033;-74
2023/01/25 04:04:03;;;;;;;51.42;39.42;;;1.40;99.90;;;;;;5036684;28;20045;-74
2023/01/25 04:06:28;;;;;;;52.03;38.88;;;1.40;99.90;;;;;;5049097;28;20143;-73
2023/01/25 04:08:54;;;;;;;52.13;39.17;;;1.40;99.90;;;;;;5049758;28;20051;-73
2023/01/25 04:11:20;;;;;;;52.13;39.88;;;1.40;99.90;;;;;;5051176;28;20131;-73
2023/01/25 04:13:45;;;;;;;53.15;41.05;;;1.40;99.90;;;;;;5048450;28;20041;-73
2023/01/25 04:16:11;;;;;;;53.28;41.53;;;1.40;99.90;;;;;;5040010;28;20064;-73
2023/01/25 04:18:37;;;;;;;55.20;41.95;;;1.40;99.90;;;;;;5029613;28;20045;-73
2023/01/25 04:21:03;;;;;;;52.67;41.33;;;1.40;99.90;;;;;;5040005;28;20048;-73
2023/01/25 04:23:29;;;;;;;53.50;40.00;;;1.40;99.90;;;;;;5050410;28;20045;-74
2023/01/25 04:26:00;;;;;;;52.97;40.30;;;1.40;99.90;;;;;;5036161;28;20057;-73
2023/01/25 04:28:27;;;;;;;54.50;40.28;;;1.40;99.90;;;;;;5045899;28;20396;-73
2023/01/25 04:30:54;;;;;;;52.20;40.33;;;1.40;99.90;;;;;;5049307;28;20055;-74
2023/01/25 04:33:19;;;;;;;47.45;37.05;;;1.40;99.90;;;;;;5035434;28;20057;-73
2023/01/25 04:35:46;;;;;;;51.13;38.60;;;1.40;99.90;;;;;;5063502;28;20123;-73
2023/01/25 04:38:12;;;;;;;49.38;36.38;;;1.40;99.90;;;;;;5034059;28;20057;-73
2023/01/25 04:40:38;;;;;;;50.75;38.30;;;1.40;99.90;;;;;;5030634;28;20053;-73
2023/01/25 04:43:05;;;;;;;50.45;38.42;;;1.30;99.90;;;;;;5030882;28;20046;-73
2023/01/25 04:45:32;;;;;;;49.72;37.90;;;1.30;99.90;;;;;;5047238;28;20075;-73
2023/01/25 04:48:00;;;;;;;48.92;36.95;;;1.30;99.90;;;;;;5049103;28;20048;-73
2023/01/25 04:50:26;;;;;;;48.10;36.83;;;1.30;99.90;;;;;;5036286;28;20045;-73
2023/01/25 04:52:52;;;;;;;50.28;36.75;;;1.30;99.90;;;;;;5049133;28;20370;-74
2023/01/25 04:55:18;;;;;;;48.58;37.63;;;1.30;99.90;;;;;;5046845;28;20041;-73
2023/01/25 04:57:44;;;;;;;49.53;38.22;;;1.30;99.90;;;;;;5040930;28;20619;-72
2023/01/25 05:00:11;;;;;;;46.40;36.60;;;1.30;99.90;;;;;;5045368;28;20068;-73
2023/01/25 05:02:38;;;;;;;47.50;36.17;;;1.30;99.90;;;;;;5034858;28;20041;-73
2023/01/25 05:05:04;;;;;;;44.80;34.28;;;1.20;99.90;;;;;;5043861;28;20075;-73
2023/01/25 05:07:30;;;;;;;48.22;35.28;;;1.20;99.90;;;;;;5041310;28;20048;-74
2023/01/25 05:09:55;;;;;;;44.60;34.33;;;1.20;99.90;;;;;;5038731;28;20048;-73
2023/01/25 05:12:21;;;;;;;45.03;35.38;;;1.20;99.90;;;;;;5048860;28;20395;-73
2023/01/25 05:14:47;;;;;;;46.58;36.00;;;1.20;99.90;;;;;;5049745;28;20045;-73
2023/01/25 05:17:12;;;;;;;44.67;34.85;;;1.20;99.90;;;;;;5047434;28;20033;-72
2023/01/25 05:19:38;;;;;;;49.00;36.53;;;1.20;99.90;;;;;;5046515;28;20135;-73
2023/01/25 05:22:06;;;;;;;44.17;33.63;;;1.20;99.90;;;;;;5036345;28;20123;-73
2023/01/25 05:24:34;;;;;;;46.42;35.92;;;1.20;99.90;;;;;;5038667;28;20045;-73
2023/01/25 05:27:03;;;;;;;49.10;36.40;;;1.20;99.90;;;;;;5048511;28;20045;-73
2023/01/25 05:29:35;;;;;;;47.47;36.10;;;1.20;99.90;;;;;;5044188;28;20061;-73
2023/01/25 05:32:03;;;;;;;49.08;36.53;;;1.10;99.90;;;;;;5044946;28;20044;-73
2023/01/25 05:34:28;;;;;;;49.45;36.83;;;1.10;99.90;;;;;;5029057;28;20057;-73
2023/01/25 05:36:54;;;;;;;49.22;35.35;;;1.10;99.90;;;;;;5033392;28;20098;-73
2023/01/25 05:39:20;;;;;;;46.92;35.58;;;1.10;99.90;;;;;;5035926;28;20049;-73
2023/01/25 05:41:46;;;;;;;48.72;35.47;;;1.10;99.90;;;;;;5044802;28;20435;-73
2023/01/25 05:44:11;;;;;;;48.42;35.30;;;1.10;99.90;;;;;;5045087;28;20037;-73
2023/01/25 05:46:37;;;;;;;49.30;36.28;;;1.10;99.90;;;;;;5030506;28;20148;-73
2023/01/25 05:49:03;;;;;;;49.15;36.42;;;1.20;99.90;;;;;;5063055;28;20100;-74
2023/01/25 05:51:28;;;;;;;50.45;38.08;;;1.10;99.90;;;;;;5042741;28;20070;-73
2023/01/25 05:53:57;;;;;;;51.00;37.85;;;1.20;99.90;;;;;;5048339;28;20053;-73
2023/01/25 05:56:23;;;;;;;47.75;36.35;;;1.10;99.90;;;;;;5040654;28;20160;-73
2023/01/25 05:58:56;;;;;;;49.90;38.15;;;1.10;99.90;;;;;;5037820;28;20127;-73
2023/01/25 06:01:22;;;;;;;51.40;36.88;;;1.10;99.90;;;;;;5045171;28;20041;-73
2023/01/25 06:03:48;;;;;;;49.72;36.83;;;1.10;99.90;;;;;;5045917;28;20567;-73
2023/01/25 06:06:13;;;;;;;49.90;37.28;;;1.10;99.90;;;;;;5032676;28;20049;-73
2023/01/25 06:08:39;;;;;;;48.92;36.10;;;1.10;99.90;;;;;;5033419;28;20515;-73
2023/01/25 06:11:10;;;;;;;48.67;35.95;;;1.10;99.90;;;;;;5031394;28;20365;-73
2023/01/25 06:13:36;;;;;;;47.42;35.08;;;1.10;99.90;;;;;;5036291;28;20399;-73
2023/01/25 06:16:01;;;;;;;48.05;36.03;;;1.10;99.90;;;;;;5049185;28;20049;-73
2023/01/25 06:18:29;;;;;;;48.22;35.17;;;1.10;99.90;;;;;;5049552;28;20045;-73
2023/01/25 06:20:55;;;;;;;;;;;1.10;99.90;;;;;;5051256;28;20049;-73
2023/01/25 06:23:20;;;;;;;47.05;32.70;;;1.10;99.90;;;;;;5050451;28;20455;-73
2023/01/25 06:25:46;;;;;;;43.72;32.63;;;1.10;99.90;;;;;;5050413;28;20040;-73
2023/01/25 06:28:12;;;;;;;44.28;32.22;;;1.10;99.90;;;;;;5049649;28;20040;-73
2023/01/25 06:30:37;;;;;;;42.97;32.88;;;1.10;99.90;;;;;;5043188;28;20480;-72
2023/01/25 06:33:03;;;;;;;42.53;32.38;;;1.10;99.90;;;;;;5032603;28;20077;-73
2023/01/25 06:35:31;;;;;;;42.75;31.75;;;1.10;99.90;;;;;;5043172;28;20135;-73
2023/01/25 06:37:58;;;;;;;43.92;33.03;;;1.10;99.90;;;;;;5032134;28;20053;-73
2023/01/25 06:40:25;;;;;;;47.03;35.30;;;1.10;99.90;;;;;;5045465;28;20522;-73
2023/01/25 06:42:50;;;;;;;48.97;37.20;;;1.10;99.90;;;;;;5041122;28;20139;-73
2023/01/25 06:45:16;;;;;;;43.08;32.70;;;1.10;99.90;;;;;;5045614;28;20133;-73
2023/01/25 06:47:42;;;;;;;44.92;33.70;;;1.10;99.90;;;;;;5048233;28;20044;-72
2023/01/25 06:50:08;;;;;;;45.15;33.67;;;1.10;99.90;;;;;;5051343;28;20511;-72
2023/01/25 06:52:37;;;;;;;44.63;32.03;;;1.10;99.90;;;;;;5048147;28;20148;-73
2023/01/25 06:55:05;;;;;;;42.45;31.65;;;1.10;99.90;;;;;;5042368;28;20029;-73
2023/01/25 06:57:31;;;;;;;44.03;32.85;;;1.10;99.90;;;;;;5050399;28;20136;-73
2023/01/25 06:59:57;;;;;;;41.63;31.00;;;1.10;99.90;;;;;;5037240;28;20128;-73
2023/01/25 07:02:23;;;;;;;43.22;31.65;;;1.20;99.90;;;;;;5041641;28;20041;-73
2023/01/25 07:04:49;;;;;;;44.47;31.20;;;1.10;99.90;;;;;;5049897;28;20393;-73
2023/01/25 07:07:15;;;;;;;42.10;31.60;;;1.10;99.90;;;;;;5041696;28;20183;-73
2023/01/25 07:09:40;;;;;;;42.38;31.63;;;1.10;99.90;;;;;;5043021;28;20037;-73
2023/01/25 07:12:06;;;;;;;43.95;32.08;;;1.10;99.90;;;;;;5050209;28;20476;-72
2023/01/25 07:14:33;;;;;;;41.53;30.67;;;1.10;99.90;;;;;;5045012;28;20045;-73
2023/01/25 07:16:59;;;;;;;41.65;31.45;;;1.10;99.90;;;;;;5044890;28;20118;-73
2023/01/25 07:19:25;;;;;;;41.97;30.40;;;1.00;99.90;;;;;;5043472;28;20084;-73
2023/01/25 07:21:50;;;;;;;41.10;30.15;;;1.00;99.90;;;;;;5048249;28;20069;-73
2023/01/25 07:24:18;;;;;;;42.72;31.15;;;1.00;99.90;;;;;;5046804;28;20099;-74
2023/01/25 07:26:44;;;;;;;41.55;31.27;;;1.00;99.90;;;;;;5049216;28;20053;-73
2023/01/25 07:29:15;;;;;;;41.05;30.58;;;1.00;99.90;;;;;;5046007;28;20499;-73
2023/01/25 07:31:40;;;;;;;42.47;31.45;;;1.00;99.90;;;;;;5038133;28;20049;-73
2023/01/25 07:34:09;;;;;;;42.30;31.90;;;1.10;99.90;;;;;;5032013;28;20439;-73
2023/01/25 07:36:36;;;;;;;41.20;30.02;;;1.00;99.90;;;;;;5044418;28;20041;-73
2023/01/25 07:39:02;;;;;;;41.85;30.77;;;1.00;99.90;;;;;;5046083;28;20124;-73
2023/01/25 07:41:28;;;;;;;42.78;30.50;;;1.10;99.90;;;;;;5044375;28;20049;-73
2023/01/25 07:43:54;;;;;;;42.17;30.95;;;1.10;99.90;;;;;;5046230;28;20325;-73
2023/01/25 07:46:20;;;;;;;44.83;30.73;;;1.10;99.90;;;;;;5044279;28;20056;-73
2023/01/25 07:48:48;;;;;;;45.13;31.13;;;1.10;99.90;;;;;;5035416;28;20044;-73
2023/01/25 07:51:23;;;;;;;43.75;31.90;;;1.00;99.90;;;;;;5047672;28;20036;-73
2023/01/25 07:53:54;;;;;;;42.45;31.77;;;1.00;99.90;;;;;;5037438;28;20179;-73
2023/01/25 07:56:23;;;;;;;41.38;30.77;;;1.00;99.90;;;;;;5042255;28;20106;-73
2023/01/25 07:58:51;;;;;;;40.00;30.13;;;1.00;99.90;;;;;;5043763;28;20385;-73
2023/01/25 08:01:17;;;;;;;;;;;1.00;99.90;;;;;;5049833;28;20495;-73
2023/01/25 08:03:45;;;;;;;39.80;28.70;;;1.00;99.90;;;;;;5045080;28;19924;-73
2023/01/25 08:06:11;;;;;;;41.83;30.48;;;1.00;99.90;;;;;;5038333;28;20036;-73
2023/01/25 08:08:44;;;;;;;39.47;29.83;;;1.10;99.90;;;;;;5045460;28;20115;-73
2023/01/25 08:11:25;;;;;;;40.38;30.25;;;1.00;99.90;;;;;;5044393;28;20045;-73
2023/01/25 08:13:51;;;;;;;39.40;28.20;;;1.10;99.90;;;;;;5046199;28;20037;-72
2023/01/25 08:16:20;;;;;;;38.15;28.70;;;1.10;99.90;;;;;;5038367;28;20045;-73
2023/01/25 08:18:47;;;;;;;39.22;29.50;;;1.10;99.90;;;;;;5045008;28;20131;-74
2023/01/25 08:21:13;;;;;;;38.08;28.15;;;1.10;99.90;;;;;;5040916;28;20041;-74
2023/01/25 08:23:38;;;;;;;37.30;28.33;;;1.00;99.90;;;;;;5047941;28;20612;-77
2023/01/25 08:26:06;;;;;;;37.20;28.50;;;1.00;99.90;;;;;;5047960;28;20041;-75
2023/01/25 08:28:32;;;;;;;40.08;28.52;;;1.00;99.90;;;;;;5046966;28;20041;-76
2023/01/25 08:31:08;;;;;;;37.40;27.80;;;1.00;99.90;;;;;;5047584;28;20048;-77
2023/01/25 08:33:34;;;;;;;39.73;28.83;;;1.00;99.90;;;;;;5050416;28;20045;-75
2023/01/25 08:36:00;;;;;;;40.15;30.42;;;1.00;99.90;;;;;;5042567;28;20186;-76
2023/01/25 08:38:26;;;;;;;44.15;32.45;;;1.00;99.90;;;;;;5049760;28;20060;-77
2023/01/25 08:40:51;;;;;;;39.72;28.83;;;1.00;99.90;;;;;;5047616;28;20396;-76
2023/01/25 08:43:17;;;;;;;41.17;30.33;;;1.00;99.90;;;;;;5046484;28;20045;-76
2023/01/25 08:45:43;;;;;;;39.08;29.60;;;1.00;99.90;;;;;;5050783;28;20497;-75
2023/01/25 08:48:11;;;;;;;41.30;30.50;;;1.00;99.90;;;;;;5048112;28;20041;-74
2023/01/25 08:50:37;;;;;;;40.70;30.55;;;1.00;99.90;;;;;;5048496;28;20377;-76
2023/01/25 08:53:02;;;;;;;44.35;32.35;;;1.00;99.90;;;;;;5045273;28;20055;-76
2023/01/25 08:55:28;;;;;;;37.15;27.83;;;1.00;99.90;;;;;;5048644;28;20055;-75
2023/01/25 08:57:54;;;;;;;40.00;30.00;;;1.00;99.90;;;;;;5050098;28;20040;-74
2023/01/25 09:00:20;;;;;;;41.42;29.38;;;1.00;99.90;;;;;;5044036;28;20135;-75
2023/01/25 09:02:45;;;;;;;43.33;30.27;;;1.00;99.90;;;;;;5037539;28;20129;-74
2023/01/25 09:05:11;;;;;;;38.47;28.73;;;1.00;99.90;;;;;;5030271;28;20488;-73
2023/01/25 09:07:38;;;;;;;43.20;31.60;;;0.90;99.90;;;;;;5043816;28;20048;-71
2023/01/25 09:10:07;;;;;;;43.30;30.73;;;1.00;99.90;;;;;;5049275;28;20055;-72
2023/01/25 09:12:34;;;;;;;41.38;31.02;;;1.00;99.90;;;;;;5047016;28;20040;-75
2023/01/25 09:14:59;;;;;;;43.95;31.00;;;1.00;99.90;;;;;;5049415;28;20102;-80
2023/01/25 09:17:25;;;;;;;43.67;31.38;;;1.00;99.90;;;;;;5048726;28;20049;-79
2023/01/25 09:19:50;;;;;;;38.90;29.40;;;1.00;99.90;;;;;;5048100;28;20135;-80
2023/01/25 09:22:16;;;;;;;39.35;29.65;;;1.00;99.90;;;;;;5046664;28;20116;-77
2023/01/25 09:24:42;;;;;;;41.45;30.80;;;1.10;99.90;;;;;;5048049;28;20064;-77
2023/01/25 09:27:07;;;;;;;40.45;30.60;;;1.10;99.90;;;;;;5049067;28;20488;-78
2023/01/25 09:29:33;;;;;;;40.53;29.75;;;1.00;99.90;;;;;;5047092;28;20041;-78
2023/01/25 09:31:59;;;;;;;39.72;29.52;;;1.00;99.90;;;;;;5049712;28;20045;-77
2023/01/25 09:34:24;;;;;;;42.13;30.95;;;1.00;99.90;;;;;;5044213;28;20503;-80
2023/01/25 09:36:50;;;;;;;42.22;30.08;;;1.00;99.90;;;;;;5047460;28;20080;-79
2023/01/25 09:39:15;;;;;;;41.38;30.30;;;1.00;99.90;;;;;;5047845;28;20037;-81
2023/01/25 09:41:53;;;;;;;42.08;31.30;;;1.00;99.90;;;;;;5046054;28;20076;-77
2023/01/25 09:44:39;;;;;;;42.22;31.40;;;1.00;99.90;;;;;;5036770;28;20057;-77
2023/01/25 09:47:20;;;;;;;42.42;30.85;;;1.00;99.90;;;;;;5049490;28;20041;-83
2023/01/25 09:50:10;;;;;;;46.15;31.60;;;1.00;99.90;;;;;;5039334;28;20050;-75
2023/01/25 09:53:06;;;;;;;42.60;31.02;;;1.00;99.90;;;;;;5036423;28;20120;-73
2023/01/25 09:55:33;;;;;;;44.42;31.02;;;0.90;99.90;;;;;;5051852;28;20049;-75
2023/01/25 09:58:01;;;;;;;43.53;30.80;;;0.90;99.90;;;;;;5053252;28;20545;-75
2023/01/25 10:00:34;;;;;;;43.90;31.88;;;0.90;99.90;;;;;;5053664;28;20049;-80
2023/01/25 10:03:09;;;;;;;56.05;37.75;;;0.90;99.90;;;;;;5052348;28;20052;-80
2023/01/25 10:05:42;;;;;;;45.88;32.60;;;1.00;99.90;;;;;;5049528;28;20045;-77
2023/01/25 10:08:30;;;;;;;45.10;32.05;;;1.00;99.90;;;;;;5051560;28;20500;-73
2023/01/25 10:11:30;;;;;;;46.03;32.42;;;1.00;99.90;;;;;;5051586;28;20151;-74
2023/01/25 10:13:57;;;;;;;43.72;30.98;;;1.00;99.90;;;;;;5012015;28;20087;-73
2023/01/25 10:16:45;;;;;;;48.63;34.35;;;1.00;99.90;;;;;;5033241;28;20439;-74
2023/01/25 10:19:49;;;;;;;45.65;32.65;;;1.00;99.90;;;;;;5036453;28;20053;-75
2023/01/25 10:22:18;;;;;;;42.88;30.83;;;1.10;99.90;;;;;;5040622;28;20053;-78
2023/01/25 10:25:05;;;;;;;45.65;32.42;;;1.10;99.90;;;;;;5047795;28;20044;-77
2023/01/25 10:27:52;;;;;;;46.15;32.25;;;1.10;99.90;;;;;;5050147;28;20040;-77
2023/01/25 10:30:47;;;;;;;44.15;32.38;;;1.10;99.90;;;;;;5039714;28;20045;-74
2023/01/25 10:33:17;;;;;;;45.70;31.55;;;1.10;99.90;;;;;;5038154;28;20052;-80
2023/01/25 10:35:45;;;;;;;47.05;33.45;;;1.10;99.90;;;;;;5048500;28;20053;-77
2023/01/25 10:38:13;;;;;;;;;;;1.10;99.90;;;;;;5045591;28;20052;-76
2023/01/25 10:40:48;;;;;;;47.92;31.50;;;1.10;99.90;;;;;;5041505;28;20508;-82
2023/01/25 10:43:18;;;;;;;45.70;32.20;;;1.10;99.90;;;;;;5047671;28;20095;-80
2023/01/25 10:45:45;;;;;;;46.05;32.70;;;1.10;99.90;;;;;;5051329;28;20033;-80
2023/01/25 10:48:19;;;;;;;44.92;32.08;;;1.00;99.90;;;;;;5046300;28;20133;-79
2023/01/25 10:50:48;;;;;;;47.30;33.22;;;1.00;99.90;;;;;;5049343;28;20484;-80
2023/01/25 10:53:28;;;;;;;48.58;33.20;;;1.10;99.90;;;;;;5047162;28;20051;-82
2023/01/25 10:55:57;;;;;;;46.13;32.45;;;1.10;99.90;;;;;;5050681;28;20485;-76
2023/01/25 10:58:40;;;;;;;50.15;33.72;;;1.10;99.90;;;;;;5049287;28;20040;-77
2023/01/25 11:01:27;;;;;;;44.38;30.42;;;1.10;99.90;;;;;;5046861;28;20500;-75
2023/01/25 11:03:53;;;;;;;;;;;1.10;99.90;;;;;;5048768;28;20094;-78
2023/01/25 11:06:37;;;;;;;42.53;29.75;;;1.00;99.90;;;;;;5081079;28;20394;-75
2023/01/25 11:09:21;;;;;;;45.25;31.27;;;1.00;99.90;;;;;;5044443;28;20388;-75
2023/01/25 11:11:58;;;;;;;42.60;29.88;;;1.00;99.90;;;;;;5049348;28;20488;-72
2023/01/25 11:14:26;;;;;;;44.78;31.05;;;1.00;99.90;;;;;;5049234;28;20040;-73
2023/01/25 11:16:54;;;;;;;47.55;31.88;;;1.00;99.90;;;;;;5046764;28;20060;-74
2023/01/25 11:19:35;;;;;;;46.35;30.15;;;1.00;99.90;;;;;;5049546;28;20053;-74
2023/01/25 11:22:04;;;;;;;44.97;31.55;;;1.00;99.90;;;;;;5049178;28;20067;-75
2023/01/25 11:24:34;;;;;;;46.90;31.60;;;1.00;99.90;;;;;;5050745;28;20040;-74
2023/01/25 11:27:21;;;;;;;41.53;28.90;;;1.00;99.90;;;;;;5049270;28;20085;-75
2023/01/25 11:30:08;;;;;;;38.77;27.80;;;1.00;99.90;;;;;;5048052;28;20053;-77
2023/01/25 11:32:33;;;;;;;43.95;28.95;;;0.90;99.90;;;;;;5048042;28;20551;-80
2023/01/25 11:34:59;;;;;;;41.15;29.00;;;0.90;99.90;;;;;;5050206;28;20053;-75
2023/01/25 11:37:34;;;;;;;41.70;28.77;;;0.90;99.90;;;;;;5048950;28;20056;-75
2023/01/25 11:40:24;;;;;;;41.25;29.00;;;0.80;99.90;;;;;;5047496;28;20071;-77
2023/01/25 11:43:26;;;;;;;39.58;27.83;;;0.90;99.90;;;;;;5048441;28;20048;-77
2023/01/25 11:46:21;;;;;;;44.28;28.40;;;0.80;99.90;;;;;;5049302;28;20083;-73
2023/01/25 11:49:04;;;;;;;41.40;27.95;;;0.80;99.90;;;;;;5024091;28;20052;-73
2023/01/25 11:51:47;;;;;;;45.58;29.80;;;0.80;99.90;;;;;;5049115;28;20091;-75
2023/01/25 11:54:28;;;;;;;41.83;27.55;;;0.80;99.90;;;;;;5046702;28;20091;-72
2023/01/25 11:57:14;;;;;;;43.75;30.58;;;0.80;99.90;;;;;;5035400;28;20045;-77
2023/01/25 11:59:51;;;;;;;43.90;29.17;;;0.80;99.90;;;;;;5039689;28;20112;-80
2023/01/25 12:02:35;;;;;;;43.05;29.00;;;0.80;99.90;;;;;;5043952;28;20496;-75
2023/01/25 12:05:22;;;;;;;43.42;28.05;;;0.80;99.90;;;;;;5046692;28;20044;-74
2023/01/25 12:07:59;;;;;;;44.28;27.90;;;0.70;99.90;;;;;;5059532;28;20040;-73
2023/01/25 12:10:30;;;;;;;;;;;0.70;99.90;;;;;;5032907;28;20455;-78
2023/01/25 12:13:12;;;;;;;40.40;27.30;;;0.70;99.90;;;;;;5042825;28;19921;-76
2023/01/25 12:15:47;;;;;;;41.78;28.05;;;0.70;99.90;;;;;;5047141;28;20076;-74
2023/01/25 12:18:33;;;;;;;42.60;27.60;;;0.70;99.90;;;;;;5048041;28;20037;-74
2023/01/25 12:21:08;;;;;;;40.63;26.65;;;0.70;99.90;;;;;;5048825;28;20049;-76
2023/01/25 12:24:03;;;;;;;40.67;26.98;;;0.70;99.90;;;;;;5048805;28;20084;-74
2023/01/25 12:27:06;;;;;;;42.22;26.98;;;0.70;99.90;;;;;;5046812;28;20083;-78
2023/01/25 12:29:38;;;;;;;42.42;28.80;;;0.70;99.90;;;;;;5047911;28;20036;-78
2023/01/25 12:32:36;;;;;;;41.67;26.20;;;0.70;99.90;;;;;;5049162;28;20053;-74
2023/01/25 12:35:22;;;;;;;39.53;26.02;;;0.60;99.90;;;;;;4997159;28;20095;-79
2023/01/25 12:37:50;;;;;;;38.47;25.38;;;0.70;99.90;;;;;;5047050;28;20098;-83
2023/01/25 12:40:33;;;;;;;40.90;27.00;;;0.70;99.90;;;;;;5045905;28;20060;-79
2023/01/25 12:43:00;;;;;;;42.83;28.30;;;0.70;99.90;;;;;;5045232;28;20479;-72
2023/01/25 12:45:36;;;;;;;45.33;29.42;;;0.60;99.90;;;;;;5045739;28;20079;-76
2023/01/25 12:48:20;;;;;;;42.10;28.17;;;0.70;99.90;;;;;;5049083;28;20037;-78
2023/01/25 12:50:58;;;;;;;45.88;28.75;;;0.70;99.90;;;;;;5048770;28;20524;-74
2023/01/25 12:53:36;;;;;;;42.83;27.98;;;0.60;99.90;;;;;;5037481;28;20053;-77